Time;durP1;ratioP1;P1;durP2;ratioP2;P2;SDS_P1;SDS_P2;PMS_P1;PMS_P2;Temp;Humidity;BMP_temperature;BMP_pressure;BME280_temperature;BME280_humidity;BME280_pressure;Samples;Min_cycle;Max_cycle;Signal;HPM_P1;HPM_P2
2022/06/27 00:02:18;;;;;;;3.80;2.72;;;24.20;99.90;;;;;;5046726;28;20044;-75
2022/06/27 00:04:44;;;;;;;3.50;3.20;;;24.30;99.90;;;;;;5064964;28;20025;-75
2022/06/27 00:07:11;;;;;;;3.45;3.15;;;23.90;99.90;;;;;;5058368;28;20526;-75
2022/06/27 00:09:37;;;;;;;3.40;3.10;;;23.30;99.90;;;;;;5058476;28;20021;-73
2022/06/27 00:12:03;;;;;;;3.13;2.92;;;23.30;99.90;;;;;;5044816;28;20115;-73
2022/06/27 00:14:29;;;;;;;3.45;3.17;;;23.40;99.90;;;;;;5058345;28;20033;-74
2022/06/27 00:16:55;;;;;;;3.10;2.90;;;23.50;99.90;;;;;;5051617;28;20608;-74
2022/06/27 00:19:20;;;;;;;4.50;3.40;;;23.60;99.90;;;;;;5064774;28;20090;-74
2022/06/27 00:21:46;;;;;;;3.30;3.03;;;23.70;99.90;;;;;;5057554;28;20486;-74
2022/06/27 00:24:12;;;;;;;3.58;3.28;;;23.70;99.90;;;;;;5040689;28;20021;-74
2022/06/27 00:26:37;;;;;;;3.30;3.00;;;23.60;99.90;;;;;;5058034;28;20021;-74
2022/06/27 00:29:03;;;;;;;5.97;3.20;;;23.70;99.90;;;;;;5058581;28;20029;-75
2022/06/27 00:31:28;;;;;;;3.22;2.92;;;23.70;99.90;;;;;;5064527;28;20069;-76
2022/06/27 00:33:54;;;;;;;3.30;3.00;;;23.70;99.90;;;;;;5064599;28;20035;-75
2022/06/27 00:36:20;;;;;;;4.53;3.40;;;23.70;99.90;;;;;;5058248;28;20063;-76
2022/06/27 00:38:45;;;;;;;3.17;2.97;;;23.70;99.90;;;;;;5040119;28;20033;-75
2022/06/27 00:41:11;;;;;;;3.20;3.00;;;23.60;99.90;;;;;;5057368;28;20024;-74
2022/06/27 00:43:36;;;;;;;3.45;3.15;;;23.60;99.90;;;;;;5058276;28;20037;-74
2022/06/27 00:46:02;;;;;;;3.53;3.22;;;23.60;99.90;;;;;;5046849;28;20056;-75
2022/06/27 00:48:28;;;;;;;3.40;3.10;;;23.60;99.90;;;;;;5033575;28;20040;-75
2022/06/27 00:50:54;;;;;;;3.60;3.30;;;23.60;99.90;;;;;;5064159;28;20033;-75
2022/06/27 00:53:19;;;;;;;3.60;3.30;;;23.60;99.90;;;;;;5046551;28;20490;-75
2022/06/27 00:55:46;;;;;;;3.63;3.40;;;23.60;99.90;;;;;;5041242;28;20123;-76
2022/06/27 00:58:11;;;;;;;3.80;3.50;;;23.60;99.90;;;;;;5062624;28;20056;-76
2022/06/27 01:00:37;;;;;;;3.53;3.20;;;23.60;99.90;;;;;;5068021;28;20459;-75
2022/06/27 01:03:02;;;;;;;5.35;3.60;;;23.50;99.90;;;;;;5049943;28;20021;-75
2022/06/27 01:05:28;;;;;;;3.72;3.42;;;23.50;99.90;;;;;;5061571;28;20657;-75
2022/06/27 01:07:54;;;;;;;3.50;3.20;;;23.50;99.90;;;;;;5044694;28;20029;-75
2022/06/27 01:10:19;;;;;;;3.20;3.00;;;23.50;99.90;;;;;;5067708;28;20021;-74
2022/06/27 01:12:47;;;;;;;3.50;3.20;;;23.50;99.90;;;;;;5067315;28;20020;-75
2022/06/27 01:15:13;;;;;;;3.53;3.33;;;23.50;99.90;;;;;;5061615;28;20040;-74
2022/06/27 01:17:39;;;;;;;3.78;3.47;;;23.60;99.90;;;;;;5062205;28;20082;-74
2022/06/27 01:20:06;;;;;;;3.45;3.15;;;23.50;99.90;;;;;;5050033;28;20029;-75
2022/06/27 01:22:32;;;;;;;4.00;3.60;;;23.50;99.90;;;;;;5048982;28;20024;-75
2022/06/27 01:24:57;;;;;;;3.60;3.30;;;23.40;99.90;;;;;;5061179;28;20065;-74
2022/06/27 01:27:23;;;;;;;3.67;3.28;;;23.50;99.90;;;;;;5062254;28;20396;-74
2022/06/27 01:29:49;;;;;;;3.60;3.30;;;23.40;99.90;;;;;;5039127;28;20119;-74
2022/06/27 01:32:14;;;;;;;3.80;3.45;;;23.30;99.90;;;;;;5043136;28;20442;-74
2022/06/27 01:34:40;;;;;;;3.90;3.55;;;23.20;99.90;;;;;;5054379;28;20033;-73
2022/06/27 01:37:06;;;;;;;3.78;3.47;;;23.30;99.90;;;;;;5054337;28;20521;-73
2022/06/27 01:39:32;;;;;;;4.10;3.70;;;23.10;99.90;;;;;;5059695;28;20063;-74
2022/06/27 01:42:00;;;;;;;3.83;3.53;;;22.60;99.90;;;;;;5073660;28;20055;-74
2022/06/27 01:44:28;;;;;;;4.18;3.60;;;22.40;99.90;;;;;;5074230;28;20514;-74
2022/06/27 01:47:02;;;;;;;3.97;3.67;;;22.40;99.90;;;;;;5074237;28;20493;-73
2022/06/27 01:49:29;;;;;;;3.80;3.47;;;22.40;99.90;;;;;;5074041;28;20033;-73
2022/06/27 01:51:56;;;;;;;3.63;3.30;;;22.60;99.90;;;;;;5073368;28;20715;-73
2022/06/27 01:54:23;;;;;;;4.05;3.75;;;22.50;99.90;;;;;;5073952;28;20032;-75
2022/06/27 01:56:51;;;;;;;3.78;3.47;;;22.50;99.90;;;;;;5059117;28;20052;-74
2022/06/27 01:59:20;;;;;;;3.80;3.60;;;22.30;99.90;;;;;;5044844;28;20024;-76
2022/06/27 02:01:46;;;;;;;4.13;3.83;;;22.30;99.90;;;;;;5060111;28;20021;-75
2022/06/27 02:04:14;;;;;;;5.57;3.97;;;22.40;99.90;;;;;;5065933;28;20021;-74
2022/06/27 02:06:41;;;;;;;4.05;3.75;;;22.30;99.90;;;;;;5070508;28;20028;-74
2022/06/27 02:09:08;;;;;;;4.13;3.83;;;22.00;99.90;;;;;;5046401;28;20048;-74
2022/06/27 02:11:35;;;;;;;4.28;3.88;;;22.10;99.90;;;;;;5068989;28;20028;-74
2022/06/27 02:14:02;;;;;;;4.30;3.90;;;22.00;99.90;;;;;;5055753;28;20486;-75
2022/06/27 02:16:28;;;;;;;3.78;3.47;;;21.70;99.90;;;;;;5060147;28;20480;-74
2022/06/27 02:18:54;;;;;;;4.53;3.78;;;21.50;99.90;;;;;;5055571;28;20111;-74
2022/06/27 02:21:25;;;;;;;5.32;3.88;;;21.40;99.90;;;;;;5072906;28;20027;-74
2022/06/27 02:23:51;;;;;;;4.07;3.78;;;21.10;99.90;;;;;;5073497;28;20020;-75
2022/06/27 02:26:20;;;;;;;3.85;3.28;;;21.30;99.90;;;;;;5073485;28;20071;-75
2022/06/27 02:28:47;;;;;;;4.05;3.70;;;21.40;99.90;;;;;;5045190;28;20025;-75
2022/06/27 02:31:12;;;;;;;4.05;3.75;;;21.60;99.90;;;;;;5066262;28;20017;-76
2022/06/27 02:33:39;;;;;;;3.80;3.50;;;21.70;99.90;;;;;;5053239;28;20048;-76
2022/06/27 02:36:09;;;;;;;4.38;3.67;;;21.50;99.90;;;;;;5057338;28;20028;-75
2022/06/27 02:38:35;;;;;;;3.97;3.58;;;20.90;99.90;;;;;;5062147;28;20399;-75
2022/06/27 02:41:03;;;;;;;3.58;3.38;;;20.90;99.90;;;;;;5070413;28;20028;-75
2022/06/27 02:43:30;;;;;;;3.90;3.60;;;20.90;99.90;;;;;;5061753;28;20028;-75
2022/06/27 02:45:56;;;;;;;3.92;3.63;;;21.20;99.90;;;;;;5066561;28;20045;-75
2022/06/27 02:48:24;;;;;;;4.05;3.75;;;21.20;99.90;;;;;;5047012;28;20029;-76
2022/06/27 02:50:54;;;;;;;3.90;3.60;;;20.90;99.90;;;;;;5040969;28;20025;-75
2022/06/27 02:53:30;;;;;;;3.75;3.45;;;21.30;99.90;;;;;;5042799;28;20036;-75
2022/06/27 02:56:01;;;;;;;4.07;3.75;;;21.40;99.90;;;;;;5045649;28;20040;-75
2022/06/27 02:58:45;;;;;;;3.47;3.28;;;21.10;99.90;;;;;;5060893;28;20032;-74
2022/06/27 03:01:12;;;;;;;3.60;3.30;;;21.20;99.90;;;;;;5041880;28;20119;-75
2022/06/27 03:03:41;;;;;;;4.30;3.90;;;21.50;99.90;;;;;;5066120;28;20017;-75
2022/06/27 03:06:07;;;;;;;4.20;3.60;;;21.40;99.90;;;;;;5052719;28;20045;-75
2022/06/27 03:08:42;;;;;;;4.50;3.70;;;21.00;99.90;;;;;;5052572;28;20025;-75
2022/06/27 03:11:09;;;;;;;4.18;3.83;;;21.00;99.90;;;;;;5052118;28;20033;-75
2022/06/27 03:13:34;;;;;;;3.85;3.50;;;20.10;99.90;;;;;;5052428;28;20017;-75
2022/06/27 03:16:01;;;;;;;3.80;3.47;;;20.20;99.90;;;;;;5065406;28;20082;-75
2022/06/27 03:18:27;;;;;;;3.72;3.10;;;20.60;99.90;;;;;;5052736;28;20061;-75
2022/06/27 03:20:52;;;;;;;5.20;3.38;;;20.60;99.90;;;;;;5051729;28;20765;-75
2022/06/27 03:23:18;;;;;;;3.47;3.17;;;20.70;99.90;;;;;;5016529;28;20045;-75
2022/06/27 03:25:44;;;;;;;3.90;3.45;;;20.60;99.90;;;;;;5056564;28;20020;-75
2022/06/27 03:28:09;;;;;;;3.40;3.10;;;20.60;99.90;;;;;;5066912;28;20074;-74
2022/06/27 03:30:35;;;;;;;4.22;3.80;;;21.00;99.90;;;;;;5063903;28;20078;-74
2022/06/27 03:33:01;;;;;;;4.72;3.78;;;20.80;99.90;;;;;;5040693;28;20082;-74
2022/06/27 03:35:26;;;;;;;3.83;3.53;;;21.10;99.90;;;;;;5042291;28;20056;-74
2022/06/27 03:37:52;;;;;;;6.13;3.20;;;21.10;99.90;;;;;;5071141;28;20094;-75
2022/06/27 03:40:18;;;;;;;3.75;3.40;;;21.40;99.90;;;;;;5059503;28;20056;-74
2022/06/27 03:42:44;;;;;;;4.35;3.55;;;21.10;99.90;;;;;;5057135;28;20039;-75
2022/06/27 03:45:10;;;;;;;4.55;3.50;;;21.30;99.90;;;;;;5060186;28;20021;-74
2022/06/27 03:47:51;;;;;;;4.75;3.42;;;21.30;99.90;;;;;;5065309;28;20016;-73
2022/06/27 03:50:17;;;;;;;5.18;3.85;;;21.50;99.90;;;;;;5064810;28;20046;-74
2022/06/27 03:52:43;;;;;;;4.10;3.70;;;21.30;99.90;;;;;;5059440;28;20042;-75
2022/06/27 03:55:10;;;;;;;3.97;3.67;;;21.30;99.90;;;;;;5057575;28;20032;-75
2022/06/27 03:57:47;;;;;;;3.75;3.45;;;21.10;99.90;;;;;;5051951;28;20029;-75
2022/06/27 04:00:12;;;;;;;3.78;3.47;;;21.10;99.90;;;;;;5064944;28;20027;-75
2022/06/27 04:02:38;;;;;;;4.10;3.70;;;21.10;99.90;;;;;;5060656;28;20021;-75
2022/06/27 04:05:04;;;;;;;4.05;3.72;;;20.80;99.90;;;;;;5040387;28;20021;-76
2022/06/27 04:07:30;;;;;;;3.95;3.65;;;20.50;99.90;;;;;;5044787;28;20120;-73
2022/06/27 04:09:56;;;;;;;4.30;3.90;;;20.50;99.90;;;;;;5064976;28;20043;-73
2022/06/27 04:12:22;;;;;;;4.82;3.90;;;20.50;99.90;;;;;;5060316;28;20367;-74
2022/06/27 04:14:48;;;;;;;4.30;3.83;;;20.60;99.90;;;;;;5071595;28;20057;-74
2022/06/27 04:17:13;;;;;;;7.63;4.40;;;20.90;99.90;;;;;;5062368;28;20029;-73
2022/06/27 04:19:39;;;;;;;5.10;4.60;;;20.40;99.90;;;;;;5064763;28;20039;-73
2022/06/27 04:22:05;;;;;;;6.13;4.68;;;20.10;99.90;;;;;;5060014;28;20055;-73
2022/06/27 04:24:30;;;;;;;6.45;4.60;;;19.90;99.90;;;;;;5069136;28;20378;-74
2022/06/27 04:26:57;;;;;;;8.05;5.10;;;19.80;99.90;;;;;;5060629;28;20052;-74
2022/06/27 04:29:23;;;;;;;9.57;5.57;;;19.70;99.90;;;;;;5055719;28;20045;-73
2022/06/27 04:31:49;;;;;;;10.15;5.47;;;19.50;99.90;;;;;;5053805;28;20094;-73
2022/06/27 04:34:15;;;;;;;9.90;5.32;;;19.20;99.90;;;;;;5055257;28;20402;-73
2022/06/27 04:36:41;;;;;;;5.90;5.40;;;19.40;99.90;;;;;;5037515;28;20025;-73
2022/06/27 04:39:07;;;;;;;6.78;5.80;;;19.70;99.90;;;;;;5057315;28;20056;-73
2022/06/27 04:41:34;;;;;;;5.63;5.22;;;19.70;99.90;;;;;;5048010;28;20031;-73
2022/06/27 04:43:59;;;;;;;6.15;5.65;;;19.60;99.90;;;;;;5071223;28;20024;-73
2022/06/27 04:46:25;;;;;;;5.63;5.13;;;19.50;99.90;;;;;;5066334;28;20423;-73
2022/06/27 04:48:51;;;;;;;5.50;5.10;;;19.70;99.90;;;;;;5071082;28;20033;-74
2022/06/27 04:51:16;;;;;;;5.63;5.13;;;19.80;99.90;;;;;;5074703;28;20025;-74
2022/06/27 04:53:44;;;;;;;5.30;4.80;;;19.90;99.90;;;;;;5059231;28;20071;-74
2022/06/27 04:56:11;;;;;;;4.50;4.10;;;20.10;99.90;;;;;;5055251;28;20047;-75
2022/06/27 04:58:37;;;;;;;6.55;4.28;;;20.40;99.90;;;;;;5055142;28;20116;-74
2022/06/27 05:01:03;;;;;;;4.43;4.03;;;20.40;99.90;;;;;;5054710;28;20625;-74
2022/06/27 05:03:28;;;;;;;3.80;3.50;;;20.50;99.90;;;;;;5068273;28;20036;-74
2022/06/27 05:05:54;;;;;;;3.83;3.40;;;20.70;99.90;;;;;;5064639;28;20020;-75
2022/06/27 05:08:20;;;;;;;3.83;3.47;;;20.80;99.90;;;;;;5062533;28;20054;-72
2022/06/27 05:10:46;;;;;;;3.53;3.20;;;20.90;99.90;;;;;;5057107;28;20054;-74
2022/06/27 05:13:13;;;;;;;3.85;3.55;;;20.80;99.90;;;;;;5072004;28;20090;-74
2022/06/27 05:15:39;;;;;;;3.80;3.50;;;20.60;99.90;;;;;;5064613;28;20103;-75
2022/06/27 05:18:04;;;;;;;4.53;4.13;;;20.90;99.90;;;;;;5061499;28;20100;-74
2022/06/27 05:20:30;;;;;;;4.25;3.85;;;21.10;99.90;;;;;;5064371;28;20493;-74
2022/06/27 05:22:57;;;;;;;4.22;3.63;;;21.40;99.90;;;;;;5054692;28;20021;-74
2022/06/27 05:25:23;;;;;;;4.45;4.05;;;21.70;99.90;;;;;;5036793;28;20474;-74
2022/06/27 05:27:49;;;;;;;4.35;3.85;;;21.50;99.90;;;;;;5054494;28;20025;-72
2022/06/27 05:30:15;;;;;;;4.32;3.92;;;21.30;99.90;;;;;;5054082;28;20033;-74
2022/06/27 05:32:42;;;;;;;5.30;4.18;;;21.30;99.90;;;;;;5057499;28;20060;-74
2022/06/27 05:35:08;;;;;;;4.43;4.03;;;21.40;99.90;;;;;;5064370;28;20029;-74
2022/06/27 05:37:38;;;;;;;4.57;4.13;;;21.30;99.90;;;;;;5057877;28;20025;-74
2022/06/27 05:40:06;;;;;;;3.92;3.63;;;21.40;99.90;;;;;;5074333;28;20025;-73
2022/06/27 05:42:33;;;;;;;4.10;3.72;;;21.40;99.90;;;;;;5055773;28;20538;-73
2022/06/27 05:44:59;;;;;;;3.80;3.50;;;21.30;99.90;;;;;;5054251;28;20036;-71
2022/06/27 05:47:25;;;;;;;4.95;4.55;;;21.40;99.90;;;;;;5067504;28;20029;-72
2022/06/27 05:49:51;;;;;;;5.35;4.82;;;21.20;99.90;;;;;;5036225;28;20025;-70
2022/06/27 05:52:17;;;;;;;6.05;4.53;;;21.10;99.90;;;;;;5053080;28;20471;-71
2022/06/27 05:54:44;;;;;;;5.45;5.00;;;21.30;99.90;;;;;;5054105;28;20029;-71
2022/06/27 05:57:11;;;;;;;6.65;5.57;;;21.10;99.90;;;;;;5053922;28;20024;-70
2022/06/27 05:59:36;;;;;;;5.32;4.88;;;21.20;99.90;;;;;;5064912;28;20096;-71
2022/06/27 06:02:03;;;;;;;5.90;5.35;;;21.30;99.90;;;;;;5063077;28;20104;-71
2022/06/27 06:04:29;;;;;;;5.57;5.10;;;21.10;99.90;;;;;;5035921;28;20090;-71
2022/06/27 06:06:55;;;;;;;5.45;4.95;;;21.10;99.90;;;;;;5053802;28;20387;-71
2022/06/27 06:09:20;;;;;;;5.75;5.20;;;21.30;99.90;;;;;;5053804;28;20387;-71
2022/06/27 06:11:48;;;;;;;6.85;5.38;;;21.30;99.90;;;;;;5053184;28;20071;-71
2022/06/27 06:14:16;;;;;;;5.85;5.25;;;21.10;99.90;;;;;;5053605;28;20072;-70
2022/06/27 06:16:43;;;;;;;5.88;5.28;;;21.20;99.90;;;;;;5053461;28;20546;-71
2022/06/27 06:19:09;;;;;;;6.03;5.45;;;21.40;99.90;;;;;;5053571;28;20028;-71
2022/06/27 06:21:35;;;;;;;6.97;6.38;;;21.60;99.90;;;;;;5052925;28;20041;-71
2022/06/27 06:24:01;;;;;;;6.57;5.97;;;21.40;99.90;;;;;;5053449;28;20025;-71
2022/06/27 06:26:28;;;;;;;7.43;5.82;;;21.60;99.90;;;;;;5053430;28;20412;-70
2022/06/27 06:28:53;;;;;;;7.70;6.43;;;21.60;99.90;;;;;;5053391;28;20029;-70
2022/06/27 06:31:23;;;;;;;7.18;6.00;;;21.80;99.90;;;;;;5052709;28;20483;-71
2022/06/27 06:33:50;;;;;;;7.55;6.35;;;21.80;99.90;;;;;;5053091;28;20125;-71
2022/06/27 06:36:18;;;;;;;6.88;6.18;;;21.70;99.90;;;;;;5053293;28;20021;-71
2022/06/27 06:38:44;;;;;;;7.32;6.35;;;21.80;99.90;;;;;;5053128;28;20018;-70
2022/06/27 06:41:10;;;;;;;6.90;6.30;;;21.70;99.90;;;;;;5052460;28;20074;-71
2022/06/27 06:43:36;;;;;;;7.88;6.10;;;22.00;99.90;;;;;;5053199;28;20096;-71
2022/06/27 06:46:02;;;;;;;7.38;6.68;;;21.80;99.90;;;;;;5052990;28;20059;-71
2022/06/27 06:48:27;;;;;;;8.25;7.05;;;21.60;99.90;;;;;;5053117;28;20512;-71
2022/06/27 06:50:54;;;;;;;8.20;7.15;;;21.60;99.90;;;;;;5052375;28;20028;-70
2022/06/27 06:53:21;;;;;;;7.90;7.18;;;21.80;99.90;;;;;;5065059;28;20024;-71
2022/06/27 06:55:48;;;;;;;6.82;6.22;;;22.10;99.90;;;;;;5066464;28;20025;-70
2022/06/27 06:58:13;;;;;;;7.22;6.22;;;22.30;99.90;;;;;;5052870;28;20525;-70
2022/06/27 07:00:39;;;;;;;8.45;6.47;;;22.50;99.90;;;;;;5051948;28;20025;-70
2022/06/27 07:03:06;;;;;;;8.35;6.78;;;22.50;99.90;;;;;;5059258;28;20027;-71
2022/06/27 07:05:32;;;;;;;7.13;6.47;;;22.60;99.90;;;;;;5072783;28;20378;-70
2022/06/27 07:07:58;;;;;;;7.78;7.15;;;22.70;99.90;;;;;;5072601;28;20051;-70
2022/06/27 07:10:25;;;;;;;7.47;6.88;;;22.70;99.90;;;;;;5071817;28;20091;-71
2022/06/27 07:12:51;;;;;;;8.13;7.32;;;22.80;99.90;;;;;;5072393;28;20090;-70
2022/06/27 07:15:17;;;;;;;7.47;6.75;;;22.90;99.90;;;;;;5072450;28;20017;-70
2022/06/27 07:17:46;;;;;;;7.03;6.38;;;23.00;99.90;;;;;;5072393;28;20051;-70
2022/06/27 07:20:13;;;;;;;7.45;6.78;;;23.00;99.90;;;;;;5054236;28;20028;-70
2022/06/27 07:22:40;;;;;;;7.57;6.93;;;22.90;99.90;;;;;;5072171;28;20021;-71
2022/06/27 07:25:07;;;;;;;8.00;7.25;;;22.80;99.90;;;;;;5072351;28;20017;-70
2022/06/27 07:27:34;;;;;;;7.80;6.97;;;22.50;99.90;;;;;;5072166;28;20047;-70
2022/06/27 07:30:01;;;;;;;8.82;7.07;;;22.70;99.90;;;;;;5054115;28;20124;-70
2022/06/27 07:32:27;;;;;;;7.30;6.43;;;22.80;99.90;;;;;;5071327;28;20033;-70
2022/06/27 07:34:54;;;;;;;7.03;6.43;;;22.50;99.90;;;;;;5054081;28;20518;-71
2022/06/27 07:37:20;;;;;;;7.60;6.90;;;22.50;99.90;;;;;;5071892;28;20067;-70
2022/06/27 07:39:47;;;;;;;7.38;6.72;;;22.40;99.90;;;;;;5071781;28;20033;-70
2022/06/27 07:42:13;;;;;;;6.75;6.25;;;22.50;99.90;;;;;;5071193;28;20025;-71
2022/06/27 07:44:38;;;;;;;6.40;5.80;;;22.50;99.90;;;;;;5071933;28;20374;-70
2022/06/27 07:47:04;;;;;;;6.60;6.00;;;22.60;99.90;;;;;;5071790;28;20363;-70
2022/06/27 07:49:30;;;;;;;6.82;6.13;;;22.50;99.90;;;;;;5071906;28;20032;-70
2022/06/27 07:51:56;;;;;;;6.15;5.63;;;22.50;99.90;;;;;;5071098;28;20498;-70
2022/06/27 07:54:22;;;;;;;6.65;6.03;;;22.70;99.90;;;;;;5071653;28;20043;-70
2022/06/27 07:56:49;;;;;;;6.70;6.10;;;22.70;99.90;;;;;;5057232;28;20466;-70
2022/06/27 07:59:15;;;;;;;7.00;6.35;;;22.60;99.90;;;;;;5051714;28;20017;-70
2022/06/27 08:01:42;;;;;;;6.07;5.47;;;22.60;99.90;;;;;;5046554;28;20017;-70
2022/06/27 08:04:08;;;;;;;6.63;6.03;;;22.90;99.90;;;;;;5071559;28;20047;-70
2022/06/27 08:06:34;;;;;;;7.18;6.38;;;23.10;99.90;;;;;;5070658;28;20629;-70
2022/06/27 08:09:03;;;;;;;6.75;6.15;;;23.30;99.90;;;;;;5071602;28;20105;-70
2022/06/27 08:11:37;;;;;;;8.10;7.30;;;23.20;99.90;;;;;;5070783;28;20437;-70
2022/06/27 08:14:05;;;;;;;8.90;8.00;;;23.10;99.90;;;;;;5071573;28;20025;-70
2022/06/27 08:16:32;;;;;;;9.88;8.30;;;22.90;99.90;;;;;;5053520;28;20391;-70
2022/06/27 08:18:58;;;;;;;8.70;7.90;;;22.60;99.90;;;;;;5071461;28;20029;-70
2022/06/27 08:21:27;;;;;;;9.48;8.68;;;22.50;99.90;;;;;;5071233;28;20058;-70
2022/06/27 08:23:56;;;;;;;10.35;9.43;;;22.60;99.90;;;;;;5071949;28;20016;-70
2022/06/27 08:26:23;;;;;;;10.48;9.57;;;22.70;99.90;;;;;;5071475;28;20104;-70
2022/06/27 08:28:50;;;;;;;10.48;9.55;;;22.70;99.90;;;;;;5071433;28;20394;-70
2022/06/27 08:31:17;;;;;;;10.45;9.40;;;22.70;99.90;;;;;;5070842;28;20483;-70
2022/06/27 08:33:45;;;;;;;11.43;10.23;;;22.40;99.90;;;;;;5058644;28;20075;-70
2022/06/27 08:36:13;;;;;;;10.55;9.57;;;22.10;99.90;;;;;;5051187;28;20055;-70
2022/06/27 08:38:42;;;;;;;10.82;9.82;;;22.40;99.90;;;;;;5051319;28;20033;-70
2022/06/27 08:41:10;;;;;;;11.52;10.38;;;22.40;99.90;;;;;;5050606;28;20423;-70
2022/06/27 08:43:37;;;;;;;12.70;11.40;;;22.00;99.90;;;;;;5051217;28;20040;-70
2022/06/27 08:46:04;;;;;;;11.25;10.18;;;21.90;99.90;;;;;;5051153;28;20021;-70
2022/06/27 08:48:31;;;;;;;12.10;10.88;;;22.40;99.90;;;;;;5051587;28;20074;-70
2022/06/27 08:50:59;;;;;;;11.88;10.85;;;22.50;99.90;;;;;;5050558;28;20090;-70
2022/06/27 08:53:25;;;;;;;10.23;9.43;;;22.40;99.90;;;;;;5051173;28;20055;-70
2022/06/27 08:55:51;;;;;;;10.52;9.60;;;23.00;99.90;;;;;;5051103;28;20021;-70
2022/06/27 08:58:19;;;;;;;11.30;10.23;;;23.20;99.90;;;;;;5050951;28;20033;-70
2022/06/27 09:00:45;;;;;;;10.48;9.57;;;23.10;99.90;;;;;;5050444;28;20554;-70
2022/06/27 09:03:19;;;;;;;10.57;9.68;;;23.90;99.90;;;;;;5059131;28;20030;-70
2022/06/27 09:05:57;;;;;;;10.45;9.38;;;23.50;99.90;;;;;;5071119;28;20513;-70
2022/06/27 09:08:25;;;;;;;9.55;8.60;;;23.10;99.90;;;;;;5071072;28;20056;-71
2022/06/27 09:10:52;;;;;;;9.60;8.60;;;23.10;99.90;;;;;;5070400;28;20375;-70
2022/06/27 09:13:19;;;;;;;8.68;7.80;;;23.30;99.90;;;;;;5052687;28;20020;-70
2022/06/27 09:15:49;;;;;;;9.35;8.65;;;23.30;99.90;;;;;;5070964;28;20016;-71
2022/06/27 09:18:17;;;;;;;10.07;9.18;;;23.00;99.90;;;;;;5074135;28;20052;-70
2022/06/27 09:20:54;;;;;;;8.15;7.38;;;23.20;99.90;;;;;;5056101;28;20458;-70
2022/06/27 09:23:35;;;;;;;8.23;7.43;;;23.60;99.90;;;;;;5074460;28;20048;-70
2022/06/27 09:26:27;;;;;;;9.48;8.57;;;23.10;99.90;;;;;;5074362;28;20077;-70
2022/06/27 09:29:06;;;;;;;7.60;6.85;;;24.20;99.90;;;;;;5067369;28;20116;-70
2022/06/27 09:31:48;;;;;;;7.40;6.70;;;24.40;99.90;;;;;;5073808;28;20483;-70
2022/06/27 09:34:20;;;;;;;7.38;6.65;;;24.30;99.90;;;;;;5074138;28;20090;-70
2022/06/27 09:36:54;;;;;;;6.65;5.95;;;24.00;99.90;;;;;;5056463;28;20024;-70
2022/06/27 09:39:35;;;;;;;7.25;5.53;;;23.70;99.90;;;;;;5074200;28;20029;-70
2022/06/27 09:42:13;;;;;;;5.30;4.90;;;23.50;99.90;;;;;;5073516;28;20100;-70
2022/06/27 09:44:44;;;;;;;5.60;4.70;;;23.60;99.90;;;;;;5074217;28;20021;-70
2022/06/27 09:47:14;;;;;;;4.95;4.15;;;23.50;99.90;;;;;;5074236;28;20025;-70
2022/06/27 09:49:43;;;;;;;4.60;4.10;;;23.30;99.90;;;;;;5074153;28;20107;-70
2022/06/27 09:52:16;;;;;;;5.50;4.30;;;23.70;99.90;;;;;;5073324;28;20032;-70
2022/06/27 09:54:45;;;;;;;5.30;4.22;;;24.40;99.90;;;;;;5074091;28;20025;-70
2022/06/27 09:57:12;;;;;;;4.93;4.32;;;24.50;99.90;;;;;;5055892;28;20021;-70
2022/06/27 09:59:39;;;;;;;4.75;4.10;;;24.10;99.90;;;;;;5053891;28;20028;-70
2022/06/27 10:02:06;;;;;;;4.30;3.92;;;24.40;99.90;;;;;;5052992;28;20036;-70
2022/06/27 10:04:35;;;;;;;5.50;4.05;;;24.00;99.90;;;;;;5053823;28;20364;-70
2022/06/27 10:07:02;;;;;;;5.00;4.50;;;24.00;99.90;;;;;;5052822;28;20017;-70
2022/06/27 10:09:30;;;;;;;5.53;3.90;;;24.40;99.90;;;;;;5034635;28;20033;-70
2022/06/27 10:12:25;;;;;;;5.75;3.95;;;24.40;99.90;;;;;;5052694;28;20021;-70
2022/06/27 10:15:09;;;;;;;4.30;3.90;;;24.40;99.90;;;;;;5070044;28;20052;-70
2022/06/27 10:17:41;;;;;;;6.07;4.40;;;24.50;99.90;;;;;;5073672;28;20028;-71
2022/06/27 10:20:16;;;;;;;4.35;3.95;;;24.30;99.90;;;;;;5073313;28;20023;-71
2022/06/27 10:22:42;;;;;;;6.47;4.60;;;24.40;99.90;;;;;;5055767;28;20085;-70
2022/06/27 10:25:26;;;;;;;4.38;3.97;;;24.60;99.90;;;;;;5073729;28;20077;-71
2022/06/27 10:28:07;;;;;;;4.22;3.80;;;24.80;99.90;;;;;;5072784;28;20039;-70
2022/06/27 10:30:43;;;;;;;4.43;4.10;;;25.10;99.90;;;;;;5073091;28;20032;-70
2022/06/27 10:33:17;;;;;;;;;;;25.30;99.90;;;;;;5058050;28;20040;-70
2022/06/27 10:35:59;;;;;;;4.75;3.50;;;25.70;99.90;;;;;;5046906;28;20378;-70
2022/06/27 10:38:39;;;;;;;4.28;3.30;;;25.40;99.90;;;;;;5051450;28;20029;-70
2022/06/27 10:41:10;;;;;;;4.93;3.20;;;25.70;99.90;;;;;;5052524;28;20018;-70
2022/06/27 10:43:53;;;;;;;4.05;3.70;;;25.50;99.90;;;;;;5052834;28;20196;-70
2022/06/27 10:46:18;;;;;;;5.30;3.60;;;25.60;99.90;;;;;;5053110;28;20071;-70
2022/06/27 10:49:16;;;;;;;3.60;3.30;;;25.70;99.90;;;;;;5052923;28;20041;-70
2022/06/27 10:51:42;;;;;;;3.42;3.13;;;25.90;99.90;;;;;;5052066;28;20457;-70
2022/06/27 10:54:10;;;;;;;4.35;3.30;;;25.80;99.90;;;;;;5034589;28;20393;-70
2022/06/27 10:56:43;;;;;;;3.58;3.28;;;25.30;99.90;;;;;;5047856;28;20025;-70
2022/06/27 10:59:14;;;;;;;3.50;3.20;;;25.40;99.90;;;;;;5053679;28;20455;-70
2022/06/27 11:02:04;;;;;;;3.60;3.22;;;25.30;99.90;;;;;;5051662;28;20027;-70
2022/06/27 11:04:35;;;;;;;3.55;3.25;;;26.00;99.90;;;;;;5052248;28;20479;-70
2022/06/27 11:07:06;;;;;;;3.80;3.50;;;26.40;99.90;;;;;;5052811;28;20032;-71
2022/06/27 11:09:43;;;;;;;3.72;3.25;;;26.00;99.90;;;;;;5034985;28;20021;-70
2022/06/27 11:12:09;;;;;;;3.85;3.45;;;26.10;99.90;;;;;;5051902;28;20033;-70
2022/06/27 11:14:58;;;;;;;3.50;3.20;;;25.90;99.90;;;;;;5052606;28;20141;-70
2022/06/27 11:17:33;;;;;;;4.72;3.45;;;25.50;99.90;;;;;;5035094;28;20074;-70
2022/06/27 11:20:23;;;;;;;4.70;4.20;;;25.50;99.90;;;;;;5052378;28;20021;-70
2022/06/27 11:22:57;;;;;;;5.55;4.25;;;25.70;99.90;;;;;;5052363;28;20518;-70
2022/06/27 11:25:27;;;;;;;4.75;4.22;;;25.70;99.90;;;;;;5034196;28;20028;-70
2022/06/27 11:33:37;;;;;;;4.65;4.25;;;25.50;99.90;;;;;;5049506;28;20031;-70
2022/06/27 11:36:03;;;;;;;5.20;4.70;;;25.50;99.90;;;;;;5050580;28;20020;-70
2022/06/27 11:38:45;;;;;;;6.22;4.53;;;26.00;99.90;;;;;;5054117;28;20028;-70
2022/06/27 11:41:13;;;;;;;4.88;4.15;;;26.60;99.90;;;;;;5051278;28;20410;-70
2022/06/27 11:43:46;;;;;;;4.82;4.30;;;26.60;99.90;;;;;;5051910;28;20016;-70
2022/06/27 11:46:51;;;;;;;5.43;4.53;;;26.40;99.90;;;;;;5051927;28;20116;-70
2022/06/27 11:49:27;;;;;;;5.43;4.10;;;26.00;99.90;;;;;;5071995;28;20055;-70
2022/06/27 11:51:56;;;;;;;;;;;25.70;99.90;;;;;;5071493;28;20039;-70
2022/06/27 11:54:22;;;;;;;4.47;3.97;;;25.80;99.90;;;;;;5071703;28;19904;-70
2022/06/27 11:56:50;;;;;;;4.85;4.45;;;25.50;99.90;;;;;;5057031;28;20532;-71
2022/06/27 11:59:19;;;;;;;6.22;4.57;;;25.40;99.90;;;;;;5049158;28;20391;-70
2022/06/27 12:01:53;;;;;;;4.40;4.00;;;25.30;99.90;;;;;;5032442;28;20029;-70
2022/06/27 12:04:26;;;;;;;5.35;4.18;;;25.10;99.90;;;;;;5046721;28;20055;-70
2022/06/27 12:07:05;;;;;;;4.35;4.00;;;25.10;99.90;;;;;;5047424;28;20383;-70
2022/06/27 12:09:45;;;;;;;4.40;3.67;;;25.10;99.90;;;;;;5045265;28;20552;-70
2022/06/27 12:12:17;;;;;;;4.50;4.10;;;25.30;99.90;;;;;;5050970;28;20029;-71
2022/06/27 12:14:49;;;;;;;4.65;4.25;;;25.30;99.90;;;;;;5033737;28;20029;-70
2022/06/27 12:17:15;;;;;;;4.93;4.38;;;25.30;99.90;;;;;;5045296;28;20471;-70
2022/06/27 12:19:41;;;;;;;4.57;4.18;;;25.40;99.90;;;;;;5050164;28;20033;-70
2022/06/27 12:22:08;;;;;;;4.28;3.97;;;25.60;99.90;;;;;;5049302;28;20493;-70
2022/06/27 12:24:34;;;;;;;5.40;4.40;;;25.70;99.90;;;;;;5050279;28;20491;-70
2022/06/27 12:26:59;;;;;;;5.03;4.03;;;25.90;99.90;;;;;;5051185;28;20033;-70
2022/06/27 12:29:25;;;;;;;4.47;4.07;;;25.90;99.90;;;;;;5051365;28;20471;-70
2022/06/27 12:31:51;;;;;;;6.45;4.78;;;26.20;99.90;;;;;;5050540;28;20491;-70
2022/06/27 12:34:16;;;;;;;5.85;4.90;;;26.20;99.90;;;;;;5033611;28;20503;-70
2022/06/27 12:36:43;;;;;;;4.55;4.20;;;25.70;99.90;;;;;;5049885;28;20036;-70
2022/06/27 12:39:09;;;;;;;5.13;4.63;;;26.30;99.90;;;;;;5051215;28;20026;-71
2022/06/27 12:41:38;;;;;;;5.85;4.30;;;26.80;99.90;;;;;;5050667;28;20029;-70
2022/06/27 12:44:04;;;;;;;5.28;4.78;;;26.80;99.90;;;;;;5051244;28;20025;-70
2022/06/27 12:46:30;;;;;;;5.20;4.60;;;26.50;99.90;;;;;;5051317;28;20039;-70
2022/06/27 12:48:56;;;;;;;5.45;4.50;;;26.30;99.90;;;;;;5051264;28;20033;-70
2022/06/27 12:51:23;;;;;;;4.60;4.22;;;26.90;99.90;;;;;;5051057;28;20044;-70
2022/06/27 12:53:49;;;;;;;4.30;3.90;;;27.10;99.90;;;;;;5055137;28;20021;-71
2022/06/27 12:56:15;;;;;;;4.95;4.30;;;27.70;99.90;;;;;;5055125;28;20044;-71
2022/06/27 12:58:41;;;;;;;4.95;4.45;;;27.10;99.90;;;;;;5055029;28;20067;-71